Time;durP1;ratioP1;P1;durP2;ratioP2;P2;SDS_P1;SDS_P2;PMS_P1;PMS_P2;Temp;Humidity;BMP_temperature;BMP_pressure;BME280_temperature;BME280_humidity;BME280_pressure;Samples;Min_cycle;Max_cycle;Signal;HPM_P1;HPM_P2
2023/10/21 00:01:39;;;;;;;17.63;10.23;;;29.00;99.90;;;;;;5034003;28;20185;-71
2023/10/21 00:04:06;;;;;;;19.77;10.87;;;28.60;99.90;;;;;;5035208;28;20189;-71
2023/10/21 00:06:34;;;;;;;20.90;10.63;;;29.20;99.90;;;;;;5035437;28;20194;-73
2023/10/21 00:09:01;;;;;;;18.57;10.77;;;29.30;99.90;;;;;;5035470;28;20177;-72
2023/10/21 00:11:29;;;;;;;18.70;10.23;;;29.70;99.90;;;;;;5034344;28;20182;-72
2023/10/21 00:13:57;;;;;;;16.63;11.03;;;30.00;99.90;;;;;;5035462;28;20212;-72
2023/10/21 00:16:24;;;;;;;16.53;11.07;;;30.10;99.90;;;;;;5035573;28;20745;-71
2023/10/21 00:18:52;;;;;;;18.17;11.27;;;30.10;99.90;;;;;;5035238;28;20180;-72
2023/10/21 00:21:19;;;;;;;15.93;10.97;;;30.60;99.90;;;;;;5035132;28;20188;-72
2023/10/21 00:30:31;;;;;;;20.07;11.47;;;30.70;99.90;;;;;;5034593;28;20215;-72
2023/10/21 00:32:58;;;;;;;21.57;11.33;;;30.50;99.90;;;;;;5033783;28;20221;-75
2023/10/21 00:35:25;;;;;;;20.27;12.10;;;30.40;99.90;;;;;;5014955;28;20249;-74
2023/10/21 00:37:52;;;;;;;21.67;11.97;;;30.90;99.90;;;;;;5013657;28;20186;-73
2023/10/21 00:40:20;;;;;;;17.90;11.27;;;30.90;99.90;;;;;;5014421;28;20779;-72
2023/10/21 00:42:47;;;;;;;18.27;11.90;;;31.30;99.90;;;;;;5014813;28;20216;-72
2023/10/21 00:45:14;;;;;;;25.63;13.07;;;31.20;99.90;;;;;;5014633;28;20645;-73
2023/10/21 00:47:42;;;;;;;15.85;11.32;;;30.60;99.90;;;;;;5015137;28;20189;-73
2023/10/21 00:51:04;;;;;;;16.40;10.93;;;30.40;99.90;;;;;;5014218;28;20209;-72
2023/10/21 00:53:31;;;;;;;16.97;9.97;;;31.30;99.90;;;;;;4997365;28;20195;-75
2023/10/21 00:56:02;;;;;;;19.50;10.97;;;31.80;99.90;;;;;;5015048;28;20559;-75
2023/10/21 00:58:33;;;;;;;17.03;11.03;;;31.30;99.90;;;;;;5013381;28;20268;-73
2023/10/21 01:01:08;;;;;;;15.40;11.20;;;31.20;99.90;;;;;;5014077;28;20186;-70
2023/10/21 01:03:36;;;;;;;16.23;10.10;;;30.90;99.90;;;;;;5014417;28;20176;-73
2023/10/21 01:06:04;;;;;;;15.30;9.60;;;31.30;99.90;;;;;;5014431;28;20258;-70
2023/10/21 01:08:38;;;;;;;15.37;10.70;;;31.20;99.90;;;;;;5014665;28;20257;-69
2023/10/21 01:11:06;;;;;;;12.87;9.53;;;31.20;99.90;;;;;;5014443;28;20228;-73
2023/10/21 01:13:33;;;;;;;12.23;10.07;;;31.60;99.90;;;;;;5014772;28;20174;-69
2023/10/21 01:16:00;;;;;;;18.63;9.95;;;30.90;99.90;;;;;;5014429;28;20276;-73
2023/10/21 01:18:33;;;;;;;19.88;10.40;;;31.40;99.90;;;;;;5013968;28;20647;-72
2023/10/21 01:21:02;;;;;;;13.02;9.15;;;32.10;99.90;;;;;;5014646;28;20290;-72
2023/10/21 01:23:36;;;;;;;12.60;9.10;;;32.90;99.90;;;;;;5014443;28;20189;-75
2023/10/21 01:26:07;;;;;;;14.40;7.18;;;32.80;99.90;;;;;;5013703;28;20190;-72
2023/10/21 01:28:35;;;;;;;15.00;9.18;;;32.20;99.90;;;;;;5014343;28;20174;-75
2023/10/21 01:31:03;;;;;;;13.70;8.57;;;32.70;99.90;;;;;;5013188;28;20277;-72
2023/10/21 01:33:30;;;;;;;16.08;8.55;;;32.80;99.90;;;;;;5012952;28;20200;-72
2023/10/21 01:35:57;;;;;;;16.55;8.93;;;32.90;99.90;;;;;;5013945;28;20210;-76
2023/10/21 01:38:25;;;;;;;14.40;8.30;;;33.00;99.90;;;;;;5013276;28;20613;-73
2023/10/21 01:40:52;;;;;;;11.98;7.60;;;33.00;99.90;;;;;;5014361;28;20170;-73
2023/10/21 01:43:19;;;;;;;15.10;8.10;;;33.20;99.90;;;;;;5014134;28;20170;-74
2023/10/21 01:45:47;;;;;;;14.55;7.88;;;33.30;99.90;;;;;;5013822;28;20193;-73
2023/10/21 01:48:14;;;;;;;17.10;8.43;;;32.80;99.90;;;;;;5013749;28;20178;-73
2023/10/21 01:50:41;;;;;;;11.27;7.72;;;32.40;99.90;;;;;;5014077;28;20658;-73
2023/10/21 01:53:08;;;;;;;14.82;8.15;;;32.80;99.90;;;;;;5013679;28;20239;-74
2023/10/21 01:58:58;;;;;;;16.83;8.48;;;32.80;99.90;;;;;;5009709;28;20225;-73
2023/10/21 02:01:25;;;;;;;14.57;8.52;;;33.40;99.90;;;;;;5014023;28;20579;-74
2023/10/21 02:03:52;;;;;;;17.55;9.40;;;33.40;99.90;;;;;;5013044;28;20193;-74
2023/10/21 02:06:19;;;;;;;13.68;9.48;;;32.90;99.90;;;;;;5013455;28;20178;-73
2023/10/21 02:08:46;;;;;;;16.27;10.00;;;32.70;99.90;;;;;;5013681;28;20177;-71
2023/10/21 02:11:14;;;;;;;17.88;10.15;;;32.30;99.90;;;;;;5012157;28;20181;-73
2023/10/21 02:13:41;;;;;;;15.35;11.43;;;32.60;99.90;;;;;;5012916;28;20614;-71
2023/10/21 02:16:11;;;;;;;19.73;12.20;;;32.70;99.90;;;;;;5012868;28;20202;-73
2023/10/21 02:18:38;;;;;;;19.90;11.70;;;32.30;99.90;;;;;;5013000;28;20582;-72
2023/10/21 02:21:07;;;;;;;16.10;12.07;;;31.80;99.90;;;;;;5012579;28;20201;-75
2023/10/21 02:23:35;;;;;;;14.52;11.80;;;31.70;99.90;;;;;;4997139;28;20173;-75
2023/10/21 02:26:04;;;;;;;16.55;10.63;;;32.40;99.90;;;;;;5004084;28;20269;-74
2023/10/21 02:28:31;;;;;;;17.88;11.82;;;32.70;99.90;;;;;;5011231;28;20649;-71
2023/10/21 02:31:03;;;;;;;14.43;11.38;;;32.80;99.90;;;;;;5011649;28;20204;-75
2023/10/21 02:33:30;;;;;;;21.67;12.13;;;33.00;99.90;;;;;;5011040;28;20205;-73
2023/10/21 02:35:57;;;;;;;15.77;12.32;;;32.60;99.90;;;;;;5011359;28;20671;-73
2023/10/21 02:38:25;;;;;;;19.02;11.80;;;32.50;99.90;;;;;;5011623;28;20279;-71
2023/10/21 02:40:56;;;;;;;16.17;12.67;;;31.80;99.90;;;;;;5011824;28;20220;-73
2023/10/21 02:43:23;;;;;;;20.00;12.73;;;31.50;99.90;;;;;;5012209;28;20186;-69
2023/10/21 02:45:50;;;;;;;20.40;12.93;;;31.50;99.90;;;;;;5015900;28;20181;-73
2023/10/21 02:48:18;;;;;;;19.00;12.60;;;31.60;99.90;;;;;;5015138;28;20189;-72
2023/10/21 02:50:45;;;;;;;16.07;12.67;;;31.80;99.90;;;;;;5016211;28;20182;-72
2023/10/21 02:53:13;;;;;;;16.13;12.35;;;32.10;99.90;;;;;;5015521;28;20794;-73
2023/10/21 02:55:40;;;;;;;18.05;11.73;;;32.10;99.90;;;;;;5015534;28;20225;-74
2023/10/21 02:58:07;;;;;;;17.38;11.95;;;32.40;99.90;;;;;;5015713;28;20232;-75
2023/10/21 03:00:34;;;;;;;16.60;12.33;;;32.10;99.90;;;;;;5015858;28;20204;-75
2023/10/21 03:03:02;;;;;;;17.17;12.43;;;31.90;99.90;;;;;;5015311;28;20190;-74
2023/10/21 03:05:29;;;;;;;15.87;11.73;;;31.80;99.90;;;;;;5013737;28;20205;-75
2023/10/21 03:07:56;;;;;;;17.98;11.93;;;31.80;99.90;;;;;;5014641;28;20198;-76
2023/10/21 03:10:24;;;;;;;15.63;11.57;;;31.80;99.90;;;;;;5014662;28;20604;-73
2023/10/21 03:12:51;;;;;;;16.67;12.97;;;31.60;99.20;;;;;;5015726;28;20182;-73
2023/10/21 03:15:18;;;;;;;20.07;13.07;;;31.20;99.90;;;;;;5015572;28;20659;-75
2023/10/21 03:17:46;;;;;;;15.77;12.40;;;30.90;99.90;;;;;;5015095;28;20563;-74
2023/10/21 03:20:13;;;;;;;20.83;13.27;;;30.40;99.90;;;;;;5015158;28;20657;-69
2023/10/21 03:22:42;;;;;;;19.07;12.70;;;30.20;99.90;;;;;;5015521;28;20182;-73
2023/10/21 03:25:11;;;;;;;15.20;12.93;;;29.90;99.90;;;;;;5014582;28;20537;-72
2023/10/21 03:27:38;;;;;;;19.93;13.63;;;29.70;99.90;;;;;;5027752;28;20192;-73
2023/10/21 03:30:07;;;;;;;15.13;12.73;;;29.60;99.90;;;;;;5035707;28;20170;-73
2023/10/21 03:32:34;;;;;;;15.47;11.80;;;29.40;99.90;;;;;;5036076;28;20181;-76
2023/10/21 03:35:02;;;;;;;18.23;12.53;;;29.60;99.90;;;;;;5035949;28;20322;-74
2023/10/21 03:37:29;;;;;;;22.80;12.63;;;29.40;99.90;;;;;;5036043;28;20185;-75
2023/10/21 03:39:56;;;;;;;14.30;12.07;;;29.30;99.90;;;;;;5023313;28;20333;-75
2023/10/21 03:42:23;;;;;;;15.37;11.37;;;29.40;99.90;;;;;;5016561;28;20651;-74
2023/10/21 03:44:51;;;;;;;22.03;12.90;;;29.40;99.90;;;;;;5016134;28;20212;-76
2023/10/21 03:47:18;;;;;;;14.33;11.90;;;29.60;99.90;;;;;;5016201;28;20174;-75
2023/10/21 03:49:45;;;;;;;19.17;12.37;;;29.90;99.90;;;;;;5015921;28;20188;-74
2023/10/21 03:52:17;;;;;;;24.00;12.20;;;29.80;99.90;;;;;;5015883;28;20186;-69
2023/10/21 03:54:45;;;;;;;14.33;11.57;;;29.60;99.90;;;;;;5015810;28;20181;-76
2023/10/21 03:57:12;;;;;;;13.87;10.87;;;30.10;99.90;;;;;;5015125;28;20268;-74
2023/10/21 03:59:39;;;;;;;11.83;10.10;;;30.30;99.90;;;;;;5015551;28;20182;-74
2023/10/21 04:02:07;;;;;;;12.17;9.73;;;30.10;99.90;;;;;;5015675;28;20182;-73
2023/10/21 04:04:34;;;;;;;14.30;10.40;;;29.90;99.90;;;;;;5015560;28;20182;-74
2023/10/21 04:07:02;;;;;;;12.87;8.60;;;29.90;99.90;;;;;;5015677;28;20269;-74
2023/10/21 04:09:29;;;;;;;10.60;8.13;;;29.80;99.90;;;;;;5015554;28;20302;-74
2023/10/21 04:11:56;;;;;;;14.57;8.17;;;29.80;99.90;;;;;;5015515;28;20264;-74
2023/10/21 04:14:23;;;;;;;12.70;8.53;;;29.90;99.90;;;;;;5015381;28;20185;-73
2023/10/21 04:16:51;;;;;;;14.13;8.83;;;30.00;99.90;;;;;;5015222;28;20263;-74
2023/10/21 04:19:19;;;;;;;14.90;8.63;;;30.30;99.90;;;;;;5015166;28;20224;-74
2023/10/21 04:21:46;;;;;;;12.17;7.43;;;30.40;99.90;;;;;;5015271;28;20214;-73
2023/10/21 04:24:15;;;;;;;11.30;7.77;;;30.30;99.90;;;;;;5015365;28;20178;-74
2023/10/21 04:26:42;;;;;;;10.90;7.10;;;30.00;99.90;;;;;;5015213;28;20279;-76
2023/10/21 04:29:10;;;;;;;15.03;7.63;;;30.00;99.90;;;;;;5015619;28;20654;-74
2023/10/21 04:31:38;;;;;;;10.80;6.47;;;29.90;99.90;;;;;;5015253;28;20193;-73
2023/10/21 04:34:05;;;;;;;11.43;6.07;;;30.30;99.90;;;;;;5015356;28;20185;-74
2023/10/21 04:36:33;;;;;;;13.03;6.67;;;30.30;99.90;;;;;;5015096;28;20697;-72
2023/10/21 04:39:00;;;;;;;13.23;6.47;;;30.10;99.90;;;;;;5015174;28;20225;-75
2023/10/21 04:41:27;;;;;;;13.40;6.20;;;29.80;99.90;;;;;;5013720;28;20272;-74
2023/10/21 04:43:55;;;;;;;9.77;5.77;;;29.50;99.90;;;;;;5014927;28;20189;-69
2023/10/21 04:46:22;;;;;;;9.87;5.60;;;30.10;99.90;;;;;;5014885;28;20255;-75
2023/10/21 04:48:50;;;;;;;13.83;6.77;;;30.10;99.90;;;;;;5014821;28;20190;-74
2023/10/21 04:51:17;;;;;;;10.70;5.60;;;29.90;99.90;;;;;;5014918;28;20181;-75
2023/10/21 04:53:44;;;;;;;9.90;5.30;;;30.30;99.90;;;;;;5014799;28;20182;-75
2023/10/21 04:56:11;;;;;;;11.67;6.10;;;30.20;99.90;;;;;;5014427;28;20297;-74
2023/10/21 04:58:39;;;;;;;12.03;6.30;;;30.20;99.90;;;;;;5014470;28;20201;-74
2023/10/21 05:01:07;;;;;;;13.60;6.83;;;30.30;99.90;;;;;;4992698;28;20252;-76
2023/10/21 05:03:34;;;;;;;14.60;7.20;;;30.20;99.90;;;;;;5012596;28;20558;-68
2023/10/21 05:06:04;;;;;;;12.13;6.00;;;30.20;99.90;;;;;;5012934;28;20186;-73
2023/10/21 05:08:33;;;;;;;12.70;6.53;;;29.50;99.90;;;;;;5010998;28;20685;-75
2023/10/21 05:11:00;;;;;;;15.37;6.23;;;29.30;99.90;;;;;;5012678;28;20227;-77
2023/10/21 05:13:28;;;;;;;14.13;7.33;;;29.00;99.90;;;;;;5013118;28;20181;-73
2023/10/21 05:15:55;;;;;;;13.40;6.47;;;28.80;99.90;;;;;;5012779;28;20714;-74
2023/10/21 05:18:22;;;;;;;17.93;7.20;;;28.80;99.90;;;;;;5012633;28;20190;-74
2023/10/21 05:20:50;;;;;;;13.70;6.90;;;28.60;99.90;;;;;;5013330;28;20185;-73
2023/10/21 05:23:17;;;;;;;17.27;8.20;;;28.90;99.90;;;;;;5015839;28;20181;-75
2023/10/21 05:25:44;;;;;;;18.07;7.47;;;29.00;99.90;;;;;;5020837;28;20274;-70
2023/10/21 05:28:11;;;;;;;16.83;7.00;;;28.80;99.90;;;;;;5012910;28;20186;-69
2023/10/21 05:30:40;;;;;;;13.17;7.27;;;28.40;99.90;;;;;;5012945;28;20181;-73
2023/10/21 05:33:08;;;;;;;19.23;7.83;;;28.40;99.90;;;;;;5013010;28;20178;-74
2023/10/21 05:35:35;;;;;;;16.90;6.97;;;28.30;99.90;;;;;;5012999;28;20280;-75
2023/10/21 05:38:02;;;;;;;13.80;6.97;;;28.50;99.90;;;;;;5012021;28;20259;-75
2023/10/21 05:40:30;;;;;;;16.13;6.80;;;28.30;99.90;;;;;;5012905;28;20212;-74
2023/10/21 05:42:57;;;;;;;13.13;7.20;;;27.90;99.90;;;;;;5012588;28;20236;-71
2023/10/21 05:45:24;;;;;;;18.33;7.67;;;27.60;99.90;;;;;;5011877;28;20273;-75
2023/10/21 05:47:53;;;;;;;20.83;8.03;;;27.20;99.90;;;;;;5012318;28;20194;-74
2023/10/21 05:50:23;;;;;;;17.53;7.73;;;27.10;99.90;;;;;;5012583;28;20245;-71
2023/10/21 05:52:51;;;;;;;17.20;6.67;;;26.90;99.90;;;;;;5011674;28;20220;-73
2023/10/21 05:55:19;;;;;;;11.87;7.03;;;26.70;99.90;;;;;;5011677;28;20206;-75
2023/10/21 05:57:47;;;;;;;13.93;6.50;;;26.60;99.90;;;;;;5012730;28;20281;-71
2023/10/21 06:00:15;;;;;;;13.83;6.50;;;26.60;99.90;;;;;;5012102;28;20210;-75
2023/10/21 06:02:42;;;;;;;13.27;6.27;;;26.60;99.90;;;;;;5012360;28;20189;-72
2023/10/21 06:05:09;;;;;;;12.87;6.13;;;27.00;99.90;;;;;;5012649;28;20256;-72
2023/10/21 06:07:36;;;;;;;16.30;6.93;;;27.10;99.90;;;;;;5011572;28;20181;-74
2023/10/21 06:10:04;;;;;;;13.73;6.40;;;27.20;99.90;;;;;;5012858;28;20186;-69
2023/10/21 06:12:32;;;;;;;17.63;6.33;;;27.50;99.90;;;;;;5012900;28;20197;-70
2023/10/21 06:15:00;;;;;;;11.90;5.50;;;27.50;99.90;;;;;;5012906;28;20190;-73
2023/10/21 06:17:28;;;;;;;12.20;5.60;;;27.60;99.90;;;;;;5013194;28;20287;-70
2023/10/21 06:19:56;;;;;;;15.30;6.27;;;27.50;99.90;;;;;;5013095;28;20639;-68
2023/10/21 06:22:23;;;;;;;11.67;5.37;;;27.40;99.90;;;;;;5013520;28;20184;-70
2023/10/21 06:24:50;;;;;;;16.57;5.97;;;27.30;99.90;;;;;;5012467;28;20261;-75
2023/10/21 06:27:17;;;;;;;14.53;5.63;;;27.40;99.90;;;;;;4989610;28;20193;-73
2023/10/21 06:29:45;;;;;;;12.07;4.57;;;27.30;99.90;;;;;;5022259;28;20185;-77
2023/10/21 06:32:12;;;;;;;14.47;5.93;;;27.10;99.90;;;;;;5031558;28;20185;-77
2023/10/21 06:34:39;;;;;;;14.47;5.03;;;27.20;99.90;;;;;;5013429;28;20178;-69
2023/10/21 06:37:07;;;;;;;10.23;5.17;;;27.30;99.90;;;;;;5011629;28;20240;-73
2023/10/21 06:39:35;;;;;;;17.20;5.33;;;27.20;99.90;;;;;;5011595;28;20255;-77
2023/10/21 06:42:03;;;;;;;14.07;5.40;;;27.00;99.90;;;;;;5011719;28;20217;-73
2023/10/21 06:44:30;;;;;;;11.80;5.27;;;26.70;99.90;;;;;;5012172;28;20181;-73
2023/10/21 06:46:57;;;;;;;13.43;5.07;;;26.60;99.90;;;;;;5012006;28;20228;-74
2023/10/21 06:49:25;;;;;;;15.20;4.77;;;26.60;99.90;;;;;;5011577;28;20587;-74
2023/10/21 06:51:54;;;;;;;12.93;4.87;;;26.50;99.90;;;;;;5012115;28;20213;-72
2023/10/21 06:54:22;;;;;;;11.93;4.40;;;26.60;99.90;;;;;;5011631;28;20193;-70
2023/10/21 06:56:50;;;;;;;14.93;5.33;;;26.60;99.90;;;;;;5011200;28;20217;-74
2023/10/21 06:59:17;;;;;;;11.80;4.77;;;26.60;99.90;;;;;;5011921;28;20544;-70
2023/10/21 07:01:44;;;;;;;17.30;5.40;;;26.70;99.90;;;;;;5012023;28;20551;-75
2023/10/21 07:04:13;;;;;;;13.13;4.90;;;26.60;99.90;;;;;;5011393;28;20205;-73
2023/10/21 07:06:41;;;;;;;16.90;5.27;;;26.30;99.90;;;;;;5011233;28;20193;-75
2023/10/21 07:09:08;;;;;;;14.73;5.43;;;26.10;99.90;;;;;;5011317;28;20182;-74
2023/10/21 07:11:36;;;;;;;16.87;5.33;;;26.00;99.90;;;;;;5009577;28;20182;-74
2023/10/21 07:14:03;;;;;;;14.17;4.60;;;25.80;99.90;;;;;;5011279;28;20666;-68
2023/10/21 07:16:31;;;;;;;16.83;5.20;;;25.70;99.90;;;;;;5011092;28;20220;-75
2023/10/21 07:18:58;;;;;;;13.87;5.67;;;25.80;99.90;;;;;;5010601;28;20193;-74
2023/10/21 07:21:25;;;;;;;16.70;5.60;;;25.90;99.90;;;;;;5010935;28;20208;-70
2023/10/21 07:23:53;;;;;;;17.93;5.07;;;25.70;99.90;;;;;;5010241;28;20547;-73
2023/10/21 07:26:20;;;;;;;14.90;5.57;;;25.70;99.90;;;;;;5010892;28;20177;-73
2023/10/21 07:28:47;;;;;;;14.23;6.03;;;25.60;99.90;;;;;;5010937;28;21691;-74
2023/10/21 07:31:14;;;;;;;13.23;5.20;;;25.60;99.90;;;;;;5011261;28;20185;-74
2023/10/21 07:33:42;;;;;;;16.57;5.60;;;25.60;99.90;;;;;;5014450;28;20555;-75
2023/10/21 07:36:09;;;;;;;12.77;5.87;;;25.50;99.90;;;;;;5014661;28;20272;-73
2023/10/21 07:38:36;;;;;;;18.13;6.00;;;25.20;99.90;;;;;;5011359;28;20321;-74
2023/10/21 07:41:14;;;;;;;15.37;5.63;;;25.20;99.90;;;;;;5014192;28;20198;-72
2023/10/21 07:43:41;;;;;;;17.80;6.90;;;25.10;99.90;;;;;;5014617;28;20193;-76
2023/10/21 07:49:31;;;;;;;11.33;5.67;;;24.80;99.90;;;;;;4994269;28;20213;-72
2023/10/21 07:51:58;;;;;;;14.47;6.27;;;24.50;99.90;;;;;;4998799;28;20182;-76
2023/10/21 07:54:26;;;;;;;22.40;6.73;;;24.30;99.90;;;;;;5013795;28;20185;-76
2023/10/21 07:56:54;;;;;;;16.40;6.20;;;24.10;99.90;;;;;;5013375;28;20749;-75
2023/10/21 07:59:22;;;;;;;17.90;6.70;;;24.10;99.90;;;;;;5025022;28;20184;-75
2023/10/21 08:01:50;;;;;;;16.70;7.23;;;24.00;99.90;;;;;;5034534;28;20651;-74
2023/10/21 08:04:18;;;;;;;19.17;6.67;;;23.90;99.90;;;;;;5016375;28;20264;-74
2023/10/21 08:06:46;;;;;;;16.40;6.23;;;23.90;99.90;;;;;;5014294;28;20669;-75
2023/10/21 08:09:15;;;;;;;19.73;5.97;;;23.80;99.90;;;;;;5014321;28;20273;-73
2023/10/21 08:11:44;;;;;;;19.33;6.87;;;23.70;99.90;;;;;;5014231;28;20178;-72
2023/10/21 08:14:12;;;;;;;18.20;6.93;;;23.50;99.90;;;;;;5013382;28;20549;-72
2023/10/21 08:16:39;;;;;;;14.30;6.00;;;23.50;99.90;;;;;;5033322;28;20251;-74
2023/10/21 08:19:07;;;;;;;15.83;6.13;;;23.50;99.90;;;;;;5033717;28;20169;-75
2023/10/21 08:21:34;;;;;;;16.13;5.73;;;23.50;99.90;;;;;;5034282;28;20175;-75
2023/10/21 08:24:03;;;;;;;18.47;6.03;;;23.40;99.90;;;;;;5034248;28;20238;-73
2023/10/21 08:26:31;;;;;;;13.37;5.97;;;23.30;99.90;;;;;;5033662;28;20231;-73
2023/10/21 08:28:59;;;;;;;17.50;5.97;;;23.20;99.90;;;;;;5033667;28;20219;-76
2023/10/21 08:31:28;;;;;;;19.53;6.00;;;23.20;99.90;;;;;;5033940;28;20188;-74
2023/10/21 08:33:55;;;;;;;15.83;5.70;;;23.10;99.90;;;;;;5031705;28;20300;-74
2023/10/21 08:36:23;;;;;;;17.60;5.80;;;23.10;99.90;;;;;;5032580;28;20230;-75
2023/10/21 08:38:50;;;;;;;17.30;5.63;;;23.00;99.90;;;;;;5019325;28;20295;-75
2023/10/21 08:41:19;;;;;;;13.83;5.80;;;23.00;99.90;;;;;;5013614;28;20649;-74
2023/10/21 08:43:48;;;;;;;18.10;5.77;;;23.00;99.90;;;;;;5014031;28;20220;-76
2023/10/21 08:46:17;;;;;;;18.47;5.83;;;22.90;99.90;;;;;;5013993;28;20177;-74
2023/10/21 08:48:47;;;;;;;10.87;4.40;;;22.90;99.90;;;;;;5013299;28;20189;-75
2023/10/21 08:51:26;;;;;;;18.07;5.47;;;22.80;99.90;;;;;;5013731;28;20182;-77
2023/10/21 08:54:04;;;;;;;18.07;5.83;;;22.70;99.90;;;;;;5013472;28;20526;-77
2023/10/21 08:56:35;;;;;;;18.27;5.50;;;22.70;99.90;;;;;;5013189;28;20232;-75
2023/10/21 08:59:03;;;;;;;24.73;5.60;;;22.70;99.90;;;;;;5013780;28;20178;-77
2023/10/21 09:01:31;;;;;;;19.23;5.37;;;22.80;99.90;;;;;;5013539;28;20564;-76
2023/10/21 09:03:59;;;;;;;20.77;5.33;;;22.70;99.90;;;;;;5013302;28;20181;-75
2023/10/21 09:06:27;;;;;;;17.23;5.03;;;22.60;99.90;;;;;;5013276;28;20185;-73
2023/10/21 09:08:54;;;;;;;15.93;5.07;;;22.60;99.90;;;;;;5012636;28;20266;-75
2023/10/21 09:11:25;;;;;;;16.00;4.90;;;22.50;99.90;;;;;;5014539;28;20243;-72
2023/10/21 09:13:57;;;;;;;18.83;5.50;;;22.40;99.90;;;;;;5014039;28;20193;-74
2023/10/21 09:16:34;;;;;;;23.20;5.37;;;22.30;99.90;;;;;;5014528;28;20220;-73
2023/10/21 09:19:15;;;;;;;16.97;5.10;;;22.30;99.90;;;;;;5014009;28;20177;-76
2023/10/21 09:21:46;;;;;;;14.67;4.60;;;22.20;99.90;;;;;;5014566;28;20264;-74
2023/10/21 09:24:22;;;;;;;16.37;4.93;;;22.20;99.90;;;;;;5014386;28;20639;-73
2023/10/21 09:26:50;;;;;;;17.93;5.37;;;22.20;99.90;;;;;;5014511;28;20540;-73
2023/10/21 09:29:19;;;;;;;18.80;4.50;;;22.20;99.90;;;;;;5012556;28;20178;-73
2023/10/21 09:31:53;;;;;;;20.03;4.43;;;22.20;99.90;;;;;;5013339;28;20170;-74
2023/10/21 09:34:32;;;;;;;23.03;4.50;;;22.10;99.90;;;;;;5014308;28;20181;-73
2023/10/21 09:37:06;;;;;;;21.77;5.33;;;22.10;99.90;;;;;;5014022;28;20300;-74
2023/10/21 09:39:37;;;;;;;17.43;4.77;;;22.00;99.90;;;;;;5013760;28;20213;-75
2023/10/21 09:42:06;;;;;;;17.90;4.30;;;22.00;99.90;;;;;;5013580;28;20316;-75
2023/10/21 09:44:35;;;;;;;17.63;4.83;;;21.90;99.90;;;;;;5013506;28;20189;-74
2023/10/21 09:47:06;;;;;;;17.53;4.63;;;21.90;99.90;;;;;;4994567;28;20186;-77
2023/10/21 09:49:40;;;;;;;17.03;4.63;;;21.80;99.90;;;;;;4994443;28;20619;-74
2023/10/21 09:52:13;;;;;;;17.20;4.70;;;21.80;99.90;;;;;;4994751;28;20178;-76
2023/10/21 09:55:10;;;;;;;20.40;4.93;;;21.80;99.90;;;;;;4993783;28;20181;-77
2023/10/21 09:57:38;;;;;;;17.20;4.60;;;21.80;99.90;;;;;;4982348;28;20665;-76
2023/10/21 10:00:08;;;;;;;21.87;5.07;;;21.80;99.90;;;;;;4993116;28;20187;-74
2023/10/21 10:02:40;;;;;;;18.03;4.57;;;21.70;99.90;;;;;;4994316;28;20179;-73
2023/10/21 10:05:11;;;;;;;20.30;4.80;;;21.60;99.90;;;;;;4992843;28;20186;-72
2023/10/21 10:07:39;;;;;;;13.57;4.43;;;21.60;99.90;;;;;;4994116;28;20537;-73
2023/10/21 10:10:12;;;;;;;26.33;5.13;;;21.50;99.90;;;;;;4994311;28;20178;-76
2023/10/21 10:12:59;;;;;;;13.30;3.77;;;21.40;99.90;;;;;;4994239;28;20237;-74
2023/10/21 10:15:39;;;;;;;15.60;5.33;;;21.30;99.90;;;;;;4993991;28;20209;-75
2023/10/21 10:18:21;;;;;;;17.07;5.13;;;21.20;99.90;;;;;;4994346;28;20178;-75
2023/10/21 10:20:51;;;;;;;25.57;10.33;;;21.20;99.90;;;;;;4992939;28;20277;-73
2023/10/21 10:23:24;;;;;;;22.93;9.77;;;21.10;99.90;;;;;;4994087;28;20587;-74
2023/10/21 10:25:52;;;;;;;17.87;7.17;;;21.00;99.90;;;;;;4994398;28;20201;-75
2023/10/21 10:28:25;;;;;;;17.07;6.17;;;21.00;99.90;;;;;;5011948;28;20264;-75
2023/10/21 10:30:56;;;;;;;21.57;5.60;;;21.00;99.90;;;;;;5010419;28;20346;-68
2023/10/21 10:33:28;;;;;;;17.83;5.47;;;20.90;99.90;;;;;;5012899;28;20185;-69
2023/10/21 10:35:58;;;;;;;16.53;5.33;;;20.80;99.90;;;;;;5010752;28;20260;-70
2023/10/21 10:38:35;;;;;;;19.93;5.13;;;20.80;99.90;;;;;;5012629;28;20256;-73
2023/10/21 10:41:11;;;;;;;20.47;5.73;;;20.70;99.90;;;;;;5013217;28;20277;-75
2023/10/21 10:44:01;;;;;;;19.00;6.23;;;20.70;99.90;;;;;;5013433;28;20280;-73
2023/10/21 10:46:30;;;;;;;15.17;4.70;;;20.70;99.90;;;;;;5013523;28;20672;-75
2023/10/21 10:49:00;;;;;;;22.97;5.60;;;20.60;99.90;;;;;;5013348;28;20185;-73
2023/10/21 10:51:27;;;;;;;22.40;5.33;;;20.60;99.90;;;;;;5012758;28;20182;-72
2023/10/21 10:54:00;;;;;;;13.50;4.90;;;20.50;99.90;;;;;;5012809;28;20182;-73
2023/10/21 10:56:49;;;;;;;18.33;5.93;;;20.50;99.90;;;;;;5010723;28;20213;-73
2023/10/21 10:59:20;;;;;;;23.03;5.50;;;20.50;99.90;;;;;;5011556;28;20550;-75
2023/10/21 11:02:11;;;;;;;17.63;5.20;;;20.40;99.90;;;;;;5010339;28;20182;-74
2023/10/21 11:04:43;;;;;;;17.53;4.77;;;20.40;99.90;;;;;;5012776;28;20170;-74
2023/10/21 11:07:12;;;;;;;19.20;5.73;;;20.30;99.90;;;;;;5014596;28;20180;-74
2023/10/21 11:09:39;;;;;;;18.17;4.87;;;20.30;99.90;;;;;;5016559;28;20342;-75
2023/10/21 11:12:06;;;;;;;19.13;5.50;;;20.40;99.90;;;;;;5016455;28;20182;-73
2023/10/21 11:14:34;;;;;;;23.30;5.60;;;20.40;99.90;;;;;;5016353;28;20177;-74
2023/10/21 11:17:04;;;;;;;17.30;4.70;;;20.50;99.90;;;;;;5013557;28;20622;-74
2023/10/21 11:19:32;;;;;;;25.87;6.50;;;20.50;99.90;;;;;;5014816;28;20179;-74
2023/10/21 11:22:00;;;;;;;25.77;6.67;;;20.40;99.90;;;;;;5016183;28;20226;-73
2023/10/21 11:24:27;;;;;;;22.77;5.30;;;20.40;99.90;;;;;;5016030;28;20178;-72
2023/10/21 11:26:55;;;;;;;22.73;6.33;;;20.30;99.90;;;;;;5016210;28;20185;-74
2023/10/21 11:29:23;;;;;;;25.27;5.77;;;20.30;99.90;;;;;;5013289;28;20189;-71
2023/10/21 11:31:50;;;;;;;16.03;5.07;;;20.30;99.90;;;;;;5016075;28;20181;-74
2023/10/21 11:34:19;;;;;;;18.43;5.80;;;20.20;99.90;;;;;;5015905;28;20177;-72
2023/10/21 11:36:50;;;;;;;21.93;5.83;;;20.20;99.90;;;;;;5015697;28;20206;-71
2023/10/21 11:39:21;;;;;;;25.30;6.53;;;20.10;99.90;;;;;;5013286;28;20215;-72
2023/10/21 11:41:50;;;;;;;20.63;5.60;;;20.10;99.90;;;;;;5016264;28;20193;-72
2023/10/21 11:44:18;;;;;;;20.33;6.57;;;20.10;99.90;;;;;;5016522;28;20509;-74
2023/10/21 11:46:46;;;;;;;26.83;7.00;;;20.10;99.90;;;;;;5016454;28;20260;-73
2023/10/21 11:49:15;;;;;;;19.40;6.30;;;20.10;99.90;;;;;;5016045;28;20181;-72
2023/10/21 11:51:46;;;;;;;21.53;6.63;;;20.00;99.90;;;;;;5016096;28;20188;-73
2023/10/21 12:26:21;;;;;;;17.13;6.33;;;19.60;99.90;;;;;;5015445;28;20684;-71
2023/10/21 12:41:10;;;;;;;17.60;5.40;;;19.50;99.90;;;;;;5014888;28;20318;-73
2023/10/21 12:43:22;;;;;;;25.90;6.03;;;19.40;99.90;;;;;;5001597;28;20582;-72
2023/10/21 12:45:45;;;;;;;21.33;6.03;;;19.40;99.90;;;;;;4995458;28;20664;-72
2023/10/21 12:48:13;;;;;;;24.20;6.47;;;19.30;99.90;;;;;;5014758;28;20193;-71
2023/10/21 12:50:41;;;;;;;27.87;7.23;;;19.40;99.90;;;;;;5014608;28;20187;-71
2023/10/21 12:53:09;;;;;;;21.80;7.10;;;19.40;99.90;;;;;;5015051;28;20186;-72
2023/10/21 12:55:37;;;;;;;22.70;6.67;;;19.50;99.90;;;;;;5014317;28;20708;-72
2023/10/21 12:58:05;;;;;;;20.03;6.13;;;19.50;99.90;;;;;;5014351;28;20232;-71
2023/10/21 13:00:32;;;;;;;29.30;6.33;;;19.60;99.90;;;;;;5014359;28;20189;-73
2023/10/21 13:03:00;;;;;;;19.80;7.03;;;19.60;99.90;;;;;;5014312;28;20264;-72
2023/10/21 13:05:27;;;;;;;18.37;6.03;;;19.70;99.90;;;;;;5014422;28;20234;-72
2023/10/21 13:07:55;;;;;;;23.03;6.70;;;19.70;99.90;;;;;;5014842;28;20257;-72
2023/10/21 13:10:22;;;;;;;23.27;6.73;;;19.80;99.90;;;;;;5014594;28;20206;-73
2023/10/21 13:12:49;;;;;;;25.83;6.57;;;19.70;99.90;;;;;;5014415;28;20190;-73
2023/10/21 13:15:16;;;;;;;21.73;6.33;;;19.70;99.90;;;;;;5014087;28;20257;-73
2023/10/21 13:17:44;;;;;;;19.93;5.27;;;19.70;99.90;;;;;;5014478;28;20269;-74
2023/10/21 13:20:17;;;;;;;15.30;6.83;;;19.70;99.90;;;;;;5014546;28;20179;-74
2023/10/21 13:22:46;;;;;;;22.73;5.60;;;19.60;99.90;;;;;;5014360;28;20186;-73
2023/10/21 13:25:14;;;;;;;25.73;6.70;;;19.60;99.90;;;;;;5014149;28;20655;-73
2023/10/21 13:27:41;;;;;;;30.07;7.07;;;19.60;99.90;;;;;;5013915;28;20192;-74
2023/10/21 13:30:15;;;;;;;21.73;7.07;;;19.60;99.90;;;;;;5013721;28;20195;-74
2023/10/21 13:32:47;;;;;;;20.17;7.33;;;19.50;99.90;;;;;;5014472;28;20185;-71
2023/10/21 13:35:15;;;;;;;20.10;5.77;;;19.50;99.90;;;;;;5014073;28;20269;-73
2023/10/21 13:37:45;;;;;;;19.47;6.13;;;19.40;99.90;;;;;;5014121;28;20186;-72
2023/10/21 13:40:17;;;;;;;20.70;5.93;;;19.40;99.90;;;;;;5013891;28;20237;-70
2023/10/21 13:42:53;;;;;;;21.47;6.63;;;19.40;99.90;;;;;;5014382;28;20652;-70